Time;durP1;ratioP1;P1;durP2;ratioP2;P2;SDS_P1;SDS_P2;PMS_P1;PMS_P2;Temp;Humidity;BMP_temperature;BMP_pressure;BME280_temperature;BME280_humidity;BME280_pressure;Samples;Min_cycle;Max_cycle;Signal;HPM_P1;HPM_P2
2023/01/10 00:01:49;;;;;;;45.78;12.43;;;;;;;;;;5094794;28;20111;-59
2023/01/10 00:04:14;;;;;;;45.20;20.60;;;;;;;;;;5095053;28;20460;-59
2023/01/10 00:06:40;;;;;;;41.28;14.13;;;;;;;;;;5093700;28;20047;-59
2023/01/10 00:09:05;;;;;;;61.17;16.33;;;;;;;;;;5094610;28;20020;-59
2023/01/10 00:14:15;;;;;;;55.10;13.25;;;;;;;;;;5094600;28;20165;-60
2023/01/10 00:16:41;;;;;;;49.33;14.60;;;;;;;;;;5093403;28;20012;-60
2023/01/10 00:19:08;;;;;;;45.03;19.38;;;;;;;;;;5094444;28;20449;-60
2023/01/10 00:21:33;;;;;;;40.95;10.25;;;;;;;;;;5094369;28;20035;-58
2023/01/10 00:26:55;;;;;;;47.95;14.65;;;;;;;;;;5094455;28;20027;-60
2023/01/10 00:29:23;;;;;;;28.35;8.25;;;;;;;;;;5094075;28;20048;-59
2023/01/10 00:31:49;;;;;;;40.08;18.10;;;;;;;;;;5094381;28;20106;-59
2023/01/10 00:34:14;;;;;;;51.35;16.33;;;;;;;;;;5094340;28;20484;-59
2023/01/10 00:36:40;;;;;;;52.58;17.25;;;;;;;;;;5093986;28;20528;-59
2023/01/10 00:39:06;;;;;;;40.20;17.65;;;;;;;;;;5093706;28;20027;-60
2023/01/10 00:44:15;;;;;;;44.40;14.65;;;;;;;;;;5094093;28;20097;-59
2023/01/10 00:46:41;;;;;;;39.03;15.10;;;;;;;;;;5094273;28;20040;-59
2023/01/10 00:49:11;;;;;;;37.60;17.60;;;;;;;;;;5091978;28;20039;-59
2023/01/10 00:51:36;;;;;;;35.90;17.02;;;;;;;;;;5094173;28;20020;-59
2023/01/10 00:54:02;;;;;;;35.20;14.32;;;;;;;;;;5093085;28;20418;-59
2023/01/10 00:56:27;;;;;;;0.73;0.73;;;;;;;;;;5094120;28;20114;-59
2023/01/10 00:58:53;;;;;;;0.68;0.60;;;;;;;;;;5092470;28;20020;-59
2023/01/10 01:01:18;;;;;;;31.45;13.07;;;;;;;;;;5093277;28;20012;-59
2023/01/10 01:03:44;;;;;;;37.30;12.75;;;;;;;;;;5094059;28;20040;-59
2023/01/10 01:06:09;;;;;;;30.00;14.82;;;;;;;;;;5093265;28;20047;-58
2023/01/10 01:08:34;;;;;;;27.63;13.90;;;;;;;;;;5093528;28;20385;-59
2023/01/10 01:11:00;;;;;;;36.58;18.30;;;;;;;;;;5093593;28;20019;-59
2023/01/10 01:13:26;;;;;;;43.97;17.27;;;;;;;;;;5093396;28;20389;-59
2023/01/10 01:15:51;;;;;;;39.05;16.55;;;;;;;;;;5093442;28;20023;-59
2023/01/10 01:18:20;;;;;;;46.97;15.80;;;;;;;;;;5093855;28;20016;-58
2023/01/10 01:20:46;;;;;;;38.83;17.45;;;;;;;;;;5093314;28;20097;-60
2023/01/10 01:23:12;;;;;;;36.92;14.02;;;;;;;;;;5093247;28;20051;-59
2023/01/10 01:25:38;;;;;;;39.50;16.23;;;;;;;;;;5093527;28;20047;-59
2023/01/10 01:28:03;;;;;;;36.05;13.98;;;;;;;;;;5093352;28;20043;-58
2023/01/10 01:30:29;;;;;;;35.25;18.13;;;;;;;;;;5093145;28;20023;-60
2023/01/10 01:32:54;;;;;;;36.97;16.70;;;;;;;;;;5093051;28;20069;-58
2023/01/10 01:35:20;;;;;;;32.22;16.83;;;;;;;;;;5091504;28;20563;-59
2023/01/10 01:37:45;;;;;;;28.50;15.57;;;;;;;;;;5093154;28;20016;-59
2023/01/10 01:40:15;;;;;;;35.67;16.63;;;;;;;;;;5091791;28;20460;-59
2023/01/10 01:42:41;;;;;;;36.47;16.65;;;;;;;;;;5092828;28;20032;-59
2023/01/10 01:45:07;;;;;;;31.52;15.88;;;;;;;;;;5091686;28;20016;-58
2023/01/10 01:47:34;;;;;;;28.05;14.73;;;;;;;;;;5092702;28;20016;-60
2023/01/10 01:50:00;;;;;;;34.05;14.80;;;;;;;;;;5092653;28;20095;-59
2023/01/10 01:52:27;;;;;;;35.25;17.77;;;;;;;;;;5093170;28;20106;-59
2023/01/10 01:54:53;;;;;;;32.40;15.48;;;;;;;;;;5092541;28;20016;-58
2023/01/10 01:57:22;;;;;;;31.23;13.57;;;;;;;;;;5092297;28;20050;-59
2023/01/10 01:59:48;;;;;;;26.10;11.60;;;;;;;;;;5092434;28;20020;-59
2023/01/10 02:02:35;;;;;;;26.55;13.30;;;;;;;;;;5092538;28;20434;-60
2023/01/10 02:05:06;;;;;;;30.67;12.27;;;;;;;;;;5091062;28;20495;-60
2023/01/10 02:07:42;;;;;;;31.23;14.63;;;;;;;;;;5090878;28;20041;-60
2023/01/10 02:10:14;;;;;;;30.02;13.70;;;;;;;;;;5092586;28;20016;-59
2023/01/10 02:12:41;;;;;;;30.42;11.98;;;;;;;;;;5092844;28;20404;-59
2023/01/10 02:15:06;;;;;;;32.78;12.35;;;;;;;;;;5092520;28;20039;-59
2023/01/10 02:17:33;;;;;;;28.23;12.30;;;;;;;;;;5090972;28;20012;-58
2023/01/10 02:20:03;;;;;;;25.80;11.70;;;;;;;;;;5092340;28;20016;-59
2023/01/10 02:22:46;;;;;;;26.75;13.07;;;;;;;;;;5092051;28;20028;-59
2023/01/10 02:25:30;;;;;;;29.17;6.07;;;;;;;;;;5092054;28;20490;-59
2023/01/10 02:28:19;;;;;;;0.20;0.20;;;;;;;;;;5092542;28;20114;-59
2023/01/10 02:30:58;;;;;;;0.55;0.47;;;;;;;;;;5092179;28;20035;-59
2023/01/10 02:33:36;;;;;;;20.27;9.70;;;;;;;;;;5092435;28;20026;-63
2023/01/10 02:36:30;;;;;;;19.83;8.73;;;;;;;;;;5092224;28;20065;-60
2023/01/10 02:39:11;;;;;;;18.27;8.85;;;;;;;;;;5020363;28;20405;-61
2023/01/10 02:41:55;;;;;;;18.20;9.25;;;;;;;;;;5090701;28;20032;-59
2023/01/10 02:44:26;;;;;;;14.85;9.52;;;;;;;;;;5092135;28;20027;-59
2023/01/10 02:46:51;;;;;;;14.65;8.85;;;;;;;;;;5091909;28;20362;-59
2023/01/10 02:49:18;;;;;;;13.63;8.57;;;;;;;;;;5091881;28;20023;-59
2023/01/10 02:51:43;;;;;;;24.15;9.15;;;;;;;;;;5092257;28;20052;-59
2023/01/10 02:54:19;;;;;;;2.30;0.60;;;;;;;;;;5092053;28;20475;-60
2023/01/10 02:56:47;;;;;;;0.32;0.32;;;;;;;;;;5092084;28;20350;-60
2023/01/10 02:59:31;;;;;;;12.00;4.90;;;;;;;;;;5091792;28;20013;-60
2023/01/10 03:02:14;;;;;;;20.02;5.88;;;;;;;;;;5092083;28;20477;-60
2023/01/10 03:04:50;;;;;;;18.40;8.75;;;;;;;;;;5090598;28;20054;-60
2023/01/10 03:07:24;;;;;;;19.45;6.93;;;;;;;;;;5089453;28;20060;-60
2023/01/10 03:09:53;;;;;;;13.60;6.30;;;;;;;;;;5090588;28;20020;-60
2023/01/10 03:12:22;;;;;;;11.35;6.75;;;;;;;;;;5092331;28;20031;-60
2023/01/10 03:14:48;;;;;;;21.45;7.85;;;;;;;;;;5096146;28;20024;-59
2023/01/10 03:17:14;;;;;;;10.50;5.13;;;;;;;;;;5094300;28;20376;-60
2023/01/10 03:19:45;;;;;;;10.68;6.32;;;;;;;;;;5095831;28;20496;-61
2023/01/10 03:22:11;;;;;;;11.98;5.55;;;;;;;;;;5095634;28;20035;-59
2023/01/10 03:24:43;;;;;;;8.60;5.00;;;;;;;;;;5095709;28;20521;-60
2023/01/10 03:27:21;;;;;;;11.68;4.95;;;;;;;;;;5095430;28;20027;-60
2023/01/10 03:29:49;;;;;;;10.82;4.28;;;;;;;;;;5094277;28;20032;-60
2023/01/10 03:32:16;;;;;;;10.30;4.85;;;;;;;;;;5095953;28;20028;-60
2023/01/10 03:34:41;;;;;;;8.73;4.63;;;;;;;;;;5094317;28;20417;-62
2023/01/10 03:37:36;;;;;;;6.43;4.18;;;;;;;;;;5093969;28;20051;-61
2023/01/10 03:40:04;;;;;;;0.00;0.00;;;;;;;;;;5081417;28;20043;-61
2023/01/10 03:44:42;;;;;;;0.15;0.15;;;;;;;;;;5093635;28;20024;-61
2023/01/10 03:45:22;;;;;;;3.90;1.95;;;;;;;;;;5094759;28;20039;-61
2023/01/10 03:47:50;;;;;;;7.15;3.03;;;;;;;;;;5095398;28;20091;-61
2023/01/10 03:50:19;;;;;;;4.90;2.95;;;;;;;;;;5095080;28;20028;-61
2023/01/10 03:52:45;;;;;;;5.47;3.08;;;;;;;;;;5095029;28;20567;-62
2023/01/10 03:55:12;;;;;;;5.22;3.65;;;;;;;;;;5094714;28;20099;-63
2023/01/10 03:57:40;;;;;;;4.32;3.70;;;;;;;;;;5095041;28;20020;-60
2023/01/10 04:00:06;;;;;;;5.45;3.45;;;;;;;;;;5093728;28;20020;-61
2023/01/10 04:02:31;;;;;;;6.82;3.75;;;;;;;;;;5094910;28;20393;-60
2023/01/10 04:04:57;;;;;;;4.95;3.83;;;;;;;;;;5093219;28;20536;-61
2023/01/10 04:07:23;;;;;;;5.13;3.13;;;;;;;;;;5094754;28;20412;-60
2023/01/10 04:09:49;;;;;;;7.85;3.05;;;;;;;;;;5093582;28;20012;-61
2023/01/10 04:12:14;;;;;;;5.97;2.90;;;;;;;;;;5093531;28;20048;-61
2023/01/10 04:14:40;;;;;;;7.38;4.72;;;;;;;;;;5094605;28;20012;-61
2023/01/10 04:17:05;;;;;;;5.30;3.45;;;;;;;;;;5094144;28;20424;-61
2023/01/10 04:19:31;;;;;;;5.85;3.45;;;;;;;;;;5095293;28;20102;-61
2023/01/10 04:21:56;;;;;;;7.13;3.75;;;;;;;;;;5093492;28;20046;-61
2023/01/10 04:24:21;;;;;;;7.05;4.68;;;;;;;;;;5093544;28;20027;-60
2023/01/10 04:26:47;;;;;;;5.75;4.00;;;;;;;;;;5094472;28;20115;-60
2023/01/10 04:29:12;;;;;;;5.78;4.05;;;;;;;;;;5094185;28;20468;-59
2023/01/10 04:31:41;;;;;;;7.18;4.05;;;;;;;;;;5094141;28;20058;-59
2023/01/10 04:34:07;;;;;;;9.00;4.70;;;;;;;;;;5094357;28;20028;-59
2023/01/10 04:36:33;;;;;;;6.35;4.18;;;;;;;;;;5094009;28;20129;-60
2023/01/10 04:38:58;;;;;;;13.13;5.80;;;;;;;;;;5094191;28;20484;-60
2023/01/10 04:41:24;;;;;;;12.35;5.45;;;;;;;;;;5093863;28;20020;-59
2023/01/10 04:43:49;;;;;;;9.70;5.03;;;;;;;;;;5094084;28;20012;-60
2023/01/10 04:46:15;;;;;;;9.57;4.35;;;;;;;;;;5093813;28;20048;-60
2023/01/10 04:48:40;;;;;;;9.93;5.07;;;;;;;;;;5093622;28;20380;-59
2023/01/10 04:51:06;;;;;;;10.15;5.65;;;;;;;;;;5093321;28;20024;-59
2023/01/10 04:53:31;;;;;;;8.65;5.07;;;;;;;;;;5093905;28;20046;-59
2023/01/10 04:56:07;;;;;;;10.55;5.30;;;;;;;;;;5092141;28;20028;-60
2023/01/10 04:58:33;;;;;;;11.02;5.38;;;;;;;;;;5094149;28;20088;-60
2023/01/10 05:00:59;;;;;;;9.82;5.45;;;;;;;;;;5092162;28;20497;-60
2023/01/10 05:03:24;;;;;;;11.98;5.45;;;;;;;;;;5093421;28;20036;-60
2023/01/10 05:05:50;;;;;;;9.00;5.32;;;;;;;;;;5091840;28;20020;-59
2023/01/10 05:08:15;;;;;;;10.35;4.70;;;;;;;;;;5093757;28;20023;-60
2023/01/10 05:10:40;;;;;;;8.43;5.13;;;;;;;;;;5092091;28;20481;-59
2023/01/10 05:13:06;;;;;;;9.55;5.80;;;;;;;;;;5093496;28;20020;-61
2023/01/10 05:15:31;;;;;;;11.70;5.32;;;;;;;;;;5093583;28;20020;-59
2023/01/10 05:17:58;;;;;;;11.68;5.72;;;;;;;;;;5093720;28;20451;-61
2023/01/10 05:20:23;;;;;;;17.38;6.25;;;;;;;;;;5093107;28;20016;-59
2023/01/10 05:22:49;;;;;;;8.18;3.50;;;;;;;;;;5093072;28;20032;-60
2023/01/10 05:25:14;;;;;;;14.77;6.05;;;;;;;;;;5093315;28;20069;-60
2023/01/10 05:27:41;;;;;;;12.13;6.05;;;;;;;;;;5093113;28;20047;-59
2023/01/10 05:30:08;;;;;;;8.85;5.65;;;;;;;;;;5093181;28;20016;-59
2023/01/10 05:32:34;;;;;;;11.32;6.38;;;;;;;;;;5092890;28;20141;-60
2023/01/10 05:34:59;;;;;;;10.35;5.88;;;;;;;;;;5092506;28;20044;-60
2023/01/10 05:37:25;;;;;;;15.20;7.13;;;;;;;;;;5092787;28;20066;-61
2023/01/10 05:39:50;;;;;;;10.75;6.38;;;;;;;;;;5091221;28;20061;-59
2023/01/10 05:42:15;;;;;;;12.13;6.32;;;;;;;;;;5092712;28;20484;-59
2023/01/10 05:44:41;;;;;;;12.98;6.32;;;;;;;;;;5092753;28;20386;-61
2023/01/10 05:47:06;;;;;;;13.60;6.68;;;;;;;;;;5091021;28;20112;-60
2023/01/10 05:49:32;;;;;;;11.80;6.50;;;;;;;;;;5092371;28;20117;-60
2023/01/10 05:51:57;;;;;;;13.30;6.78;;;;;;;;;;5092674;28;20081;-59
2023/01/10 05:54:22;;;;;;;16.15;7.15;;;;;;;;;;5092188;28;20442;-60
2023/01/10 05:56:49;;;;;;;14.13;7.15;;;;;;;;;;5092606;28;20013;-60
2023/01/10 05:59:14;;;;;;;16.42;7.82;;;;;;;;;;5092214;28;20020;-60
2023/01/10 06:01:40;;;;;;;13.68;7.28;;;;;;;;;;5092193;28;20302;-61
2023/01/10 06:04:06;;;;;;;18.70;8.00;;;;;;;;;;5092150;28;20023;-60
2023/01/10 06:06:33;;;;;;;19.60;7.88;;;;;;;;;;5091690;28;20050;-60
2023/01/10 06:08:58;;;;;;;17.02;7.68;;;;;;;;;;5091829;28;20104;-59
2023/01/10 06:11:28;;;;;;;19.38;7.30;;;;;;;;;;5092576;28;20107;-60
2023/01/10 06:13:57;;;;;;;18.65;8.05;;;;;;;;;;5091900;28;20350;-60
2023/01/10 06:16:23;;;;;;;19.35;8.65;;;;;;;;;;5092070;28;20021;-62
2023/01/10 06:18:48;;;;;;;19.50;7.28;;;;;;;;;;5091956;28;20487;-61
2023/01/10 06:21:14;;;;;;;22.48;8.75;;;;;;;;;;5091297;28;20375;-60
2023/01/10 06:23:40;;;;;;;18.40;7.10;;;;;;;;;;5091752;28;20101;-61
2023/01/10 06:26:05;;;;;;;15.30;7.78;;;;;;;;;;5089990;28;20496;-59
2023/01/10 06:28:31;;;;;;;25.50;10.23;;;;;;;;;;5091577;28;20022;-62
2023/01/10 06:30:56;;;;;;;24.35;10.55;;;;;;;;;;5091430;28;20055;-62
2023/01/10 06:33:22;;;;;;;20.63;9.77;;;;;;;;;;5089774;28;20035;-61
2023/01/10 06:35:47;;;;;;;25.27;10.38;;;;;;;;;;5091739;28;20477;-62
2023/01/10 06:38:13;;;;;;;22.08;10.38;;;;;;;;;;5091386;28;20016;-61
2023/01/10 06:40:40;;;;;;;19.10;9.95;;;;;;;;;;5091466;28;20016;-61
2023/01/10 06:43:05;;;;;;;23.05;10.40;;;;;;;;;;5089575;28;20038;-60
2023/01/10 06:45:31;;;;;;;29.52;9.75;;;;;;;;;;5091547;28;20016;-63
2023/01/10 06:47:57;;;;;;;25.85;10.80;;;;;;;;;;5094248;28;20334;-61
2023/01/10 06:50:23;;;;;;;26.02;10.57;;;;;;;;;;5095197;28;20061;-61
2023/01/10 06:52:57;;;;;;;33.22;10.77;;;;;;;;;;5095020;28;20491;-62
2023/01/10 06:55:23;;;;;;;29.07;10.57;;;;;;;;;;5094956;28;20472;-61
2023/01/10 06:57:48;;;;;;;32.90;12.93;;;;;;;;;;5094664;28;20024;-61
2023/01/10 07:00:14;;;;;;;30.20;12.55;;;;;;;;;;5092807;28;20052;-60
2023/01/10 07:02:39;;;;;;;36.03;14.18;;;;;;;;;;5094953;28;20039;-62
2023/01/10 07:05:05;;;;;;;37.83;13.82;;;;;;;;;;5093129;28;20028;-61
2023/01/10 07:07:30;;;;;;;34.80;13.30;;;;;;;;;;5094351;28;20040;-61
2023/01/10 07:09:58;;;;;;;39.88;14.10;;;;;;;;;;5093616;28;20440;-62
2023/01/10 07:12:23;;;;;;;34.60;14.23;;;;;;;;;;5094531;28;20016;-62
2023/01/10 07:14:49;;;;;;;45.63;15.93;;;;;;;;;;5094491;28;20084;-61
2023/01/10 07:17:15;;;;;;;39.03;15.02;;;;;;;;;;5094056;28;20412;-61
2023/01/10 07:19:41;;;;;;;34.35;14.35;;;;;;;;;;5094894;28;20505;-61
2023/01/10 07:22:06;;;;;;;37.95;15.27;;;;;;;;;;5094969;28;20060;-61
2023/01/10 07:24:32;;;;;;;50.03;16.25;;;;;;;;;;5094765;28;20095;-61
2023/01/10 07:26:57;;;;;;;51.45;15.95;;;;;;;;;;5092354;28;20020;-61
2023/01/10 07:29:22;;;;;;;45.78;16.95;;;;;;;;;;5094015;28;20417;-61
2023/01/10 07:31:48;;;;;;;38.78;16.80;;;;;;;;;;5094200;28;20320;-61
2023/01/10 07:34:13;;;;;;;38.90;15.70;;;;;;;;;;5094450;28;20446;-61
2023/01/10 07:36:39;;;;;;;44.45;15.90;;;;;;;;;;5094712;28;20103;-61
2023/01/10 07:39:04;;;;;;;41.40;16.60;;;;;;;;;;5094426;28;20017;-61
2023/01/10 07:41:30;;;;;;;42.88;16.35;;;;;;;;;;5094531;28;20020;-62
2023/01/10 07:43:55;;;;;;;39.72;17.00;;;;;;;;;;5093945;28;20024;-60
2023/01/10 07:46:21;;;;;;;39.42;17.02;;;;;;;;;;5093043;28;20028;-62
2023/01/10 07:48:47;;;;;;;32.30;15.73;;;;;;;;;;5093043;28;20077;-61
2023/01/10 07:51:14;;;;;;;33.78;16.08;;;;;;;;;;5093805;28;20166;-61
2023/01/10 07:53:39;;;;;;;37.00;15.07;;;;;;;;;;5093922;28;20051;-60
2023/01/10 07:56:05;;;;;;;35.83;13.77;;;;;;;;;;5094236;28;20055;-62
2023/01/10 07:58:31;;;;;;;24.40;9.18;;;;;;;;;;5094482;28;20382;-61
2023/01/10 08:01:01;;;;;;;29.17;13.73;;;;;;;;;;5094049;28;20016;-62
2023/01/10 08:03:26;;;;;;;26.45;11.00;;;;;;;;;;5093713;28;20213;-59
2023/01/10 08:05:59;;;;;;;31.80;12.82;;;;;;;;;;5094892;28;20024;-62
2023/01/10 08:08:24;;;;;;;21.52;12.05;;;;;;;;;;5094195;28;20048;-62
2023/01/10 08:10:50;;;;;;;24.50;11.57;;;;;;;;;;5095545;28;20028;-60
2023/01/10 08:13:15;;;;;;;27.23;12.30;;;;;;;;;;5094910;28;20099;-60
2023/01/10 08:15:41;;;;;;;24.70;11.48;;;;;;;;;;5094397;28;20016;-60
2023/01/10 08:18:06;;;;;;;24.10;8.63;;;;;;;;;;5094382;28;20081;-61
2023/01/10 08:20:32;;;;;;;24.58;12.52;;;;;;;;;;5092860;28;20075;-60
2023/01/10 08:22:57;;;;;;;24.27;11.77;;;;;;;;;;5093740;28;20032;-62
2023/01/10 08:25:23;;;;;;;23.75;11.93;;;;;;;;;;5092310;28;20388;-61
2023/01/10 08:27:49;;;;;;;25.35;11.38;;;;;;;;;;5092629;28;20101;-61
2023/01/10 08:30:15;;;;;;;22.65;12.05;;;;;;;;;;5094288;28;20436;-61
2023/01/10 08:32:40;;;;;;;21.95;13.32;;;;;;;;;;5094283;28;20024;-60
2023/01/10 08:35:06;;;;;;;24.25;12.18;;;;;;;;;;5094460;28;20020;-60
2023/01/10 08:37:32;;;;;;;23.13;11.55;;;;;;;;;;5093776;28;20024;-62
2023/01/10 08:39:57;;;;;;;23.08;11.70;;;;;;;;;;5093674;28;20035;-62
2023/01/10 08:42:23;;;;;;;25.45;12.63;;;;;;;;;;5092659;28;20123;-62
2023/01/10 08:44:48;;;;;;;23.17;10.60;;;;;;;;;;5094118;28;20024;-61
2023/01/10 08:47:14;;;;;;;18.52;10.90;;;;;;;;;;5094112;28;20016;-60
2023/01/10 08:49:39;;;;;;;21.92;10.68;;;;;;;;;;5093979;28;20024;-61
2023/01/10 08:52:05;;;;;;;16.13;9.45;;;;;;;;;;5093401;28;20475;-61
2023/01/10 08:54:31;;;;;;;17.92;10.88;;;;;;;;;;5093739;28;20389;-62
2023/01/10 08:56:57;;;;;;;20.88;9.68;;;;;;;;;;5094448;28;20021;-60
2023/01/10 08:59:23;;;;;;;21.30;8.68;;;;;;;;;;5093828;28;20131;-59
2023/01/10 09:01:49;;;;;;;17.67;9.45;;;;;;;;;;5093292;28;20048;-60
2023/01/10 09:04:14;;;;;;;18.42;9.90;;;;;;;;;;5092634;28;20027;-61
2023/01/10 09:06:40;;;;;;;20.45;11.90;;;;;;;;;;5093990;28;20051;-63
2023/01/10 09:09:05;;;;;;;19.90;10.65;;;;;;;;;;5093572;28;20016;-61
2023/01/10 09:11:31;;;;;;;25.58;12.48;;;;;;;;;;5094287;28;20020;-61
2023/01/10 09:13:56;;;;;;;25.95;13.45;;;;;;;;;;5094401;28;20023;-61
2023/01/10 09:16:22;;;;;;;30.40;12.93;;;;;;;;;;5092186;28;20016;-60
2023/01/10 09:18:48;;;;;;;28.48;15.00;;;;;;;;;;5091983;28;20024;-60
2023/01/10 09:21:13;;;;;;;32.40;14.40;;;;;;;;;;5093112;28;20024;-62
2023/01/10 09:23:39;;;;;;;29.30;14.88;;;;;;;;;;5091606;28;20032;-61
2023/01/10 09:26:04;;;;;;;28.42;15.25;;;;;;;;;;5093058;28;20027;-60
2023/01/10 09:28:30;;;;;;;27.23;14.60;;;;;;;;;;5092055;28;20396;-61
2023/01/10 09:30:56;;;;;;;29.30;15.80;;;;;;;;;;5093077;28;20012;-61
2023/01/10 09:33:21;;;;;;;23.48;14.55;;;;;;;;;;5093597;28;20073;-61
2023/01/10 09:35:47;;;;;;;26.60;15.63;;;;;;;;;;5093449;28;20024;-62
2023/01/10 09:38:13;;;;;;;33.70;16.95;;;;;;;;;;5091505;28;20379;-62
2023/01/10 09:40:57;;;;;;;40.35;15.95;;;;;;;;;;5093461;28;20016;-61
2023/01/10 09:43:35;;;;;;;31.70;15.30;;;;;;;;;;5093004;28;20024;-59
2023/01/10 09:46:11;;;;;;;36.38;15.23;;;;;;;;;;5092883;28;20027;-61
2023/01/10 09:48:40;;;;;;;26.65;14.48;;;;;;;;;;5093036;28;20107;-61
2023/01/10 09:51:08;;;;;;;23.58;14.60;;;;;;;;;;5091191;28;20016;-61
2023/01/10 09:53:36;;;;;;;26.42;15.10;;;;;;;;;;5092333;28;20012;-60
2023/01/10 09:56:03;;;;;;;30.23;18.08;;;;;;;;;;5091260;28;20076;-61
2023/01/10 09:58:30;;;;;;;26.17;14.18;;;;;;;;;;5092707;28;20059;-61
2023/01/10 10:00:57;;;;;;;29.02;15.75;;;;;;;;;;5091681;28;20468;-60
2023/01/10 10:03:31;;;;;;;26.42;14.15;;;;;;;;;;5091483;28;20036;-62
2023/01/10 10:05:57;;;;;;;28.47;14.97;;;;;;;;;;5092449;28;20449;-62
2023/01/10 10:08:22;;;;;;;28.23;15.05;;;;;;;;;;5092141;28;20268;-62
2023/01/10 10:10:48;;;;;;;27.77;14.68;;;;;;;;;;5092056;28;20020;-62
2023/01/10 10:13:32;;;;;;;26.88;14.43;;;;;;;;;;5091378;28;20099;-62
2023/01/10 10:16:17;;;;;;;28.42;15.20;;;;;;;;;;5091755;28;20085;-63
2023/01/10 10:18:52;;;;;;;65.47;36.83;;;;;;;;;;5089668;28;20031;-62
2023/01/10 10:21:20;;;;;;;36.00;15.60;;;;;;;;;;5091248;28;20103;-62
2023/01/10 10:24:21;;;;;;;26.38;13.52;;;;;;;;;;5090427;28;20123;-61
2023/01/10 10:26:58;;;;;;;27.48;13.00;;;;;;;;;;5029156;28;20029;-62
2023/01/10 10:29:29;;;;;;;19.35;12.48;;;;;;;;;;5079148;28;20085;-63
2023/01/10 10:31:58;;;;;;;22.42;13.05;;;;;;;;;;5089490;28;20052;-62
2023/01/10 10:34:26;;;;;;;18.98;12.40;;;;;;;;;;5091225;28;20035;-62
2023/01/10 10:37:10;;;;;;;21.63;11.15;;;;;;;;;;5090809;28;20028;-62
2023/01/10 10:39:56;;;;;;;25.92;11.77;;;;;;;;;;5089998;28;20012;-62
2023/01/10 10:42:21;;;;;;;19.92;11.65;;;;;;;;;;5089907;28;20036;-62
2023/01/10 10:44:59;;;;;;;26.60;10.70;;;;;;;;;;5091435;28;20019;-62
2023/01/10 10:47:26;;;;;;;23.50;10.60;;;;;;;;;;5089733;28;20051;-62
2023/01/10 10:50:07;;;;;;;21.52;7.68;;;;;;;;;;5090019;28;20461;-62
2023/01/10 10:52:34;;;;;;;20.95;9.77;;;;;;;;;;5091223;28;20014;-62
2023/01/10 10:54:59;;;;;;;17.27;8.15;;;;;;;;;;5090839;28;20027;-62
2023/01/10 10:57:27;;;;;;;20.08;9.88;;;;;;;;;;5089811;28;20486;-62
2023/01/10 10:59:53;;;;;;;20.98;10.90;;;;;;;;;;5089706;28;20028;-62
2023/01/10 11:02:21;;;;;;;24.27;10.45;;;;;;;;;;5091198;28;20032;-62
2023/01/10 11:04:47;;;;;;;21.33;11.05;;;;;;;;;;5091685;28;20012;-62
2023/01/10 11:07:16;;;;;;;21.63;10.05;;;;;;;;;;5090532;28;20127;-66
2023/01/10 11:09:58;;;;;;;19.45;9.30;;;;;;;;;;5089450;28;20012;-63
2023/01/10 11:12:27;;;;;;;20.17;9.77;;;;;;;;;;5091036;28;20385;-63
2023/01/10 11:14:52;;;;;;;17.73;8.50;;;;;;;;;;5089014;28;20038;-63
2023/01/10 11:17:19;;;;;;;18.13;8.60;;;;;;;;;;5090376;28;20361;-62
2023/01/10 11:19:54;;;;;;;18.50;8.38;;;;;;;;;;5091014;28;20021;-61
2023/01/10 11:22:19;;;;;;;16.20;9.15;;;;;;;;;;5090460;28;20036;-63
2023/01/10 11:25:05;;;;;;;16.25;9.15;;;;;;;;;;5090980;28;20033;-62
2023/01/10 11:27:30;;;;;;;;;;;;;;;;;;5088324;28;20028;-62
2023/01/10 11:30:05;;;;;;;23.80;10.35;;;;;;;;;;5091045;28;20428;-62
2023/01/10 11:32:36;;;;;;;23.20;10.88;;;;;;;;;;5091347;28;20023;-62
2023/01/10 11:35:05;;;;;;;21.17;10.15;;;;;;;;;;5094157;28;20020;-63
2023/01/10 11:37:32;;;;;;;25.65;11.65;;;;;;;;;;5094489;28;20096;-62
2023/01/10 11:40:18;;;;;;;26.55;11.93;;;;;;;;;;5094777;28;20024;-62
2023/01/10 11:42:45;;;;;;;29.38;13.20;;;;;;;;;;5092353;28;20056;-63
2023/01/10 11:45:30;;;;;;;26.02;14.07;;;;;;;;;;5094465;28;20468;-63
2023/01/10 11:47:59;;;;;;;29.48;16.40;;;;;;;;;;5093712;28;20395;-63
2023/01/10 11:50:29;;;;;;;28.73;15.40;;;;;;;;;;5094792;28;20085;-62
2023/01/10 11:52:56;;;;;;;37.22;14.48;;;;;;;;;;5093085;28;20024;-62
2023/01/10 11:55:22;;;;;;;33.35;14.10;;;;;;;;;;5093183;28;20024;-62
2023/01/10 11:57:56;;;;;;;30.25;14.77;;;;;;;;;;5094264;28;20030;-61
2023/01/10 12:00:21;;;;;;;29.85;14.93;;;;;;;;;;5092400;28;20024;-63
2023/01/10 12:02:49;;;;;;;28.77;14.50;;;;;;;;;;5094139;28;20042;-62
2023/01/10 12:05:19;;;;;;;25.65;15.98;;;;;;;;;;5093851;28;20040;-62
2023/01/10 12:08:08;;;;;;;27.25;14.98;;;;;;;;;;5094013;28;20134;-61
2023/01/10 12:10:34;;;;;;;22.60;13.32;;;;;;;;;;5094128;28;20111;-63
2023/01/10 12:13:12;;;;;;;31.67;14.82;;;;;;;;;;5093285;28;20028;-62
2023/01/10 12:15:37;;;;;;;25.85;12.70;;;;;;;;;;5093181;28;20491;-62
2023/01/10 12:18:04;;;;;;;27.42;12.77;;;;;;;;;;5094372;28;20016;-62
2023/01/10 12:20:35;;;;;;;29.27;12.43;;;;;;;;;;5093881;28;20016;-62
2023/01/10 12:23:05;;;;;;;27.95;13.65;;;;;;;;;;5093811;28;20031;-64
2023/01/10 12:25:31;;;;;;;30.88;13.77;;;;;;;;;;5092149;28;20020;-63
2023/01/10 12:27:57;;;;;;;25.00;15.00;;;;;;;;;;5092127;28;20024;-63
2023/01/10 12:30:31;;;;;;;36.28;18.20;;;;;;;;;;5093211;28;20396;-66
2023/01/10 12:32:59;;;;;;;31.85;14.45;;;;;;;;;;5091683;28;20031;-64
2023/01/10 12:35:32;;;;;;;25.13;13.82;;;;;;;;;;5092023;28;20036;-63
2023/01/10 12:38:05;;;;;;;32.85;16.20;;;;;;;;;;5093729;28;20125;-63
2023/01/10 12:40:34;;;;;;;25.85;13.18;;;;;;;;;;5092272;28;20023;-63
2023/01/10 12:45:52;;;;;;;28.80;13.00;;;;;;;;;;5093325;28;20441;-63
2023/01/10 12:48:23;;;;;;;23.13;11.63;;;;;;;;;;5094012;28;20457;-63
2023/01/10 12:50:57;;;;;;;23.50;11.88;;;;;;;;;;5092822;28;20126;-62
2023/01/10 12:53:28;;;;;;;29.13;10.63;;;;;;;;;;5093293;28;20510;-63
2023/01/10 12:55:55;;;;;;;27.17;13.40;;;;;;;;;;5092327;28;20080;-62
2023/01/10 12:58:34;;;;;;;30.30;12.68;;;;;;;;;;5091746;28;20024;-64
2023/01/10 13:01:00;;;;;;;23.42;10.98;;;;;;;;;;5093518;28;20054;-62
2023/01/10 13:03:30;;;;;;;33.35;11.52;;;;;;;;;;5093482;28;20148;-62
2023/01/10 13:05:56;;;;;;;27.17;13.18;;;;;;;;;;5093049;28;20046;-64
2023/01/10 13:08:23;;;;;;;22.15;11.43;;;;;;;;;;5092855;28;20106;-64
2023/01/10 13:10:51;;;;;;;22.33;12.02;;;;;;;;;;5092665;28;20095;-62
2023/01/10 13:13:23;;;;;;;23.08;11.05;;;;;;;;;;5092653;28;20117;-65
2023/01/10 13:16:07;;;;;;;25.42;9.40;;;;;;;;;;5093507;28;20050;-65
2023/01/10 13:18:33;;;;;;;21.13;9.63;;;;;;;;;;5092965;28;20035;-65
2023/01/10 13:21:02;;;;;;;22.95;9.07;;;;;;;;;;5091348;28;20031;-66
2023/01/10 13:23:32;;;;;;;23.90;10.52;;;;;;;;;;5092363;28;20059;-65
2023/01/10 13:25:59;;;;;;;20.88;10.45;;;;;;;;;;5092473;28;20098;-65
2023/01/10 13:28:27;;;;;;;21.48;9.68;;;;;;;;;;5091225;28;20043;-65
2023/01/10 13:30:57;;;;;;;17.27;7.47;;;;;;;;;;5092832;28;20030;-63
2023/01/10 13:33:28;;;;;;;16.52;8.45;;;;;;;;;;5092487;28;20020;-65
2023/01/10 13:35:55;;;;;;;13.65;7.18;;;;;;;;;;5092138;28;20024;-65
2023/01/10 13:38:34;;;;;;;13.63;6.97;;;;;;;;;;5092312;28;20053;-65
2023/01/10 13:41:03;;;;;;;13.07;6.65;;;;;;;;;;5092472;28;20024;-64
2023/01/10 13:43:33;;;;;;;10.85;5.68;;;;;;;;;;5092619;28;20070;-62
2023/01/10 13:46:14;;;;;;;17.17;6.47;;;;;;;;;;5091234;28;20031;-65
2023/01/10 13:48:40;;;;;;;15.02;6.20;;;;;;;;;;5090797;28;20329;-64
2023/01/10 13:51:12;;;;;;;14.73;7.18;;;;;;;;;;5091858;28;20020;-64
2023/01/10 13:53:42;;;;;;;12.50;5.50;;;;;;;;;;5092084;28;20024;-64
2023/01/10 13:56:27;;;;;;;12.70;6.47;;;;;;;;;;5092391;28;20027;-65
2023/01/10 14:04:22;;;;;;;11.40;4.75;;;;;;;;;;5092025;28;20115;-66
2023/01/10 14:06:58;;;;;;;10.57;4.35;;;;;;;;;;5091624;28;20136;-67
2023/01/10 14:09:24;;;;;;;12.80;5.43;;;;;;;;;;5090356;28;20031;-63
2023/01/10 14:12:12;;;;;;;13.15;4.75;;;;;;;;;;5090664;28;20020;-65
2023/01/10 14:14:41;;;;;;;11.40;3.90;;;;;;;;;;5089176;28;20031;-66
2023/01/10 14:17:19;;;;;;;7.55;3.90;;;;;;;;;;5091182;28;20022;-69
2023/01/10 14:19:47;;;;;;;10.70;3.65;;;;;;;;;;5090414;28;20030;-67
2023/01/10 14:22:31;;;;;;;6.25;3.75;;;;;;;;;;5091764;28;20032;-69
2023/01/10 14:24:57;;;;;;;11.40;4.13;;;;;;;;;;5091362;28;20112;-78
2023/01/10 14:27:23;;;;;;;7.32;3.95;;;;;;;;;;5091645;28;20022;-67
2023/01/10 14:29:49;;;;;;;5.53;3.92;;;;;;;;;;5091482;28;20012;-68
2023/01/10 14:32:26;;;;;;;4.28;2.92;;;;;;;;;;5089982;28;20384;-69
2023/01/10 14:34:53;;;;;;;7.88;3.50;;;;;;;;;;5091119;28;20085;-68
2023/01/10 14:37:24;;;;;;;6.93;3.38;;;;;;;;;;5092767;28;20019;-68
2023/01/10 14:39:52;;;;;;;6.68;3.20;;;;;;;;;;5091086;28;20092;-68
2023/01/10 14:42:18;;;;;;;6.85;3.63;;;;;;;;;;5090622;28;20028;-68
2023/01/10 14:44:48;;;;;;;5.25;3.00;;;;;;;;;;5091503;28;20016;-68
2023/01/10 14:47:30;;;;;;;9.25;3.15;;;;;;;;;;5091086;28;20406;-66
2023/01/10 14:50:06;;;;;;;9.13;2.92;;;;;;;;;;5091846;28;20024;-66
2023/01/10 14:52:31;;;;;;;6.65;3.30;;;;;;;;;;5091272;28;20016;-67